Time;durP1;ratioP1;P1;durP2;ratioP2;P2;SDS_P1;SDS_P2;PMS_P1;PMS_P2;Temp;Humidity;BMP_temperature;BMP_pressure;BME280_temperature;BME280_humidity;BME280_pressure;Samples;Min_cycle;Max_cycle;Signal;HPM_P1;HPM_P2
2023/10/30 00:00:08;;;;;;;0.27;0.27;;;13.40;99.90;13.40;99307.00;;;;4906507;28;117514;-67
2023/10/30 00:02:39;;;;;;;0.10;0.10;;;13.40;99.90;13.40;99319.00;;;;4908616;28;88681;-67
2023/10/30 00:05:06;;;;;;;0.30;0.30;;;13.40;99.90;13.40;99318.00;;;;4909500;28;87798;-67
2023/10/30 00:07:32;;;;;;;0.87;0.50;;;13.40;99.90;13.50;99316.00;;;;4916262;28;87773;-67
2023/10/30 00:09:58;;;;;;;0.57;0.20;;;13.50;99.90;13.50;99320.00;;;;4910720;28;118128;-68
2023/10/30 00:12:24;;;;;;;0.20;0.10;;;13.50;99.90;13.50;99308.00;;;;4898422;28;87726;-68
2023/10/30 00:14:50;;;;;;;0.15;0.15;;;13.50;99.90;13.60;99322.00;;;;4896836;28;109212;-68
2023/10/30 00:17:16;;;;;;;0.47;0.47;;;13.50;99.90;13.60;99335.00;;;;4891845;28;86697;-68
2023/10/30 00:19:42;;;;;;;0.40;0.32;;;13.50;99.90;13.60;99330.00;;;;4915132;28;87974;-67
2023/10/30 00:22:11;;;;;;;0.68;0.65;;;14.60;99.90;13.60;99333.00;;;;4914651;28;94381;-67
2023/10/30 00:24:39;;;;;;;0.30;0.30;;;13.50;99.90;13.60;99336.00;;;;4905820;28;88717;-66
2023/10/30 00:27:05;;;;;;;0.80;0.40;;;13.60;99.90;13.60;99334.00;;;;4914699;28;99260;-66
2023/10/30 00:29:38;;;;;;;0.20;0.20;;;13.60;99.90;13.60;99333.00;;;;4910920;28;116806;-66
2023/10/30 00:32:05;;;;;;;0.28;0.28;;;13.60;99.90;13.60;99337.00;;;;4909976;28;87947;-67
2023/10/30 00:34:31;;;;;;;0.30;0.30;;;13.60;99.90;13.70;99341.00;;;;4895232;28;88440;-67
2023/10/30 00:36:57;;;;;;;0.65;0.52;;;13.60;99.90;13.70;99346.00;;;;4909043;28;104130;-68
2023/10/30 00:39:23;;;;;;;0.40;0.20;;;13.70;99.90;13.70;99337.00;;;;4912353;28;88473;-67
2023/10/30 00:41:48;;;;;;;0.17;0.17;;;14.20;99.90;13.80;99344.00;;;;4910442;28;100395;-68
2023/10/30 00:44:14;;;;;;;0.40;0.30;;;13.70;99.90;13.80;99335.00;;;;4912030;28;110626;-68
2023/10/30 00:46:39;;;;;;;0.20;0.15;;;13.70;99.90;13.80;99331.00;;;;4895286;28;100760;-66
2023/10/30 00:49:05;;;;;;;2.83;0.30;;;13.80;99.90;13.80;99327.00;;;;4909932;28;117202;-68
2023/10/30 00:51:31;;;;;;;0.50;0.30;;;13.80;99.90;13.80;99343.00;;;;4911611;28;97623;-69
2023/10/30 00:53:59;;;;;;;1.87;0.43;;;13.80;99.90;13.80;99341.00;;;;4913266;28;110222;-66
2023/10/30 00:56:25;;;;;;;0.40;0.40;;;13.80;99.90;13.80;99349.00;;;;4916234;28;88674;-67
2023/10/30 00:58:50;;;;;;;0.50;0.40;;;13.80;99.90;13.90;99357.00;;;;4915592;28;103619;-67
2023/10/30 01:01:17;;;;;;;0.22;0.22;;;13.80;99.90;13.90;99352.00;;;;4912309;28;101692;-67
2023/10/30 01:03:44;;;;;;;0.30;0.30;;;13.80;99.90;13.80;99348.00;;;;4914087;28;87853;-67
2023/10/30 01:06:09;;;;;;;1.33;0.32;;;13.80;99.90;13.80;99358.00;;;;4911254;28;109111;-67
2023/10/30 01:08:35;;;;;;;0.50;0.20;;;13.80;99.90;13.80;99354.00;;;;4909988;28;89205;-69
2023/10/30 01:11:01;;;;;;;0.20;0.20;;;13.80;99.90;13.80;99351.00;;;;4895047;28;87575;-68
2023/10/30 01:13:27;;;;;;;0.75;0.10;;;13.80;99.90;13.80;99344.00;;;;4912293;28;102149;-67
2023/10/30 01:15:53;;;;;;;0.20;0.20;;;14.40;99.90;13.80;99342.00;;;;4912691;28;87392;-68
2023/10/30 01:18:20;;;;;;;0.20;0.20;;;13.70;99.90;13.70;99344.00;;;;4910488;28;88475;-68
2023/10/30 01:20:46;;;;;;;0.10;0.10;;;13.70;99.90;13.70;99353.00;;;;4911167;28;87670;-67
2023/10/30 01:23:13;;;;;;;0.20;0.20;;;13.70;99.90;13.70;99346.00;;;;4914347;28;88209;-66
2023/10/30 01:25:39;;;;;;;0.22;0.22;;;13.70;99.90;13.70;99352.00;;;;4916492;28;87815;-65
2023/10/30 01:28:05;;;;;;;0.30;0.30;;;13.70;99.90;13.60;99354.00;;;;4916516;28;117640;-66
2023/10/30 01:30:30;;;;;;;0.20;0.20;;;13.60;99.90;13.60;99346.00;;;;4912874;28;116285;-66
2023/10/30 01:32:56;;;;;;;1.00;0.30;;;13.60;99.90;13.60;99367.00;;;;4911964;28;109293;-67
2023/10/30 01:35:22;;;;;;;2.72;0.85;;;13.60;99.90;13.60;99364.00;;;;4891632;28;107899;-66
2023/10/30 01:37:47;;;;;;;0.20;0.20;;;14.50;99.90;13.50;99363.00;;;;4916280;28;106419;-66
2023/10/30 01:40:14;;;;;;;0.10;0.10;;;13.50;99.90;13.50;99374.00;;;;4913617;28;117623;-66
2023/10/30 01:42:40;;;;;;;0.65;0.25;;;13.50;99.90;13.50;99369.00;;;;4910410;28;87870;-68
2023/10/30 01:45:07;;;;;;;0.32;0.32;;;13.50;99.90;13.50;99369.00;;;;4912678;28;106816;-67
2023/10/30 01:47:32;;;;;;;0.25;0.25;;;13.50;99.90;13.50;99372.00;;;;4910753;28;106433;-69
2023/10/30 01:50:00;;;;;;;0.57;0.30;;;13.50;99.90;13.50;99372.00;;;;4879300;28;115742;-68
2023/10/30 01:52:28;;;;;;;0.60;0.20;;;13.50;99.90;13.40;99370.00;;;;4913683;28;88012;-68
2023/10/30 01:54:54;;;;;;;0.47;0.20;;;13.40;99.90;13.30;99385.00;;;;4908119;28;93061;-66
2023/10/30 01:57:24;;;;;;;0.10;0.10;;;13.40;99.90;13.30;99382.00;;;;4913375;28;115562;-69
2023/10/30 01:59:51;;;;;;;0.30;0.30;;;13.30;99.90;13.30;99376.00;;;;4906431;28;117222;-67
2023/10/30 02:02:19;;;;;;;0.30;0.10;;;13.30;99.90;13.30;99392.00;;;;4895985;28;89533;-69
2023/10/30 02:04:44;;;;;;;0.77;0.33;;;13.30;99.90;13.30;99398.00;;;;4910471;28;87523;-67
2023/10/30 02:07:11;;;;;;;0.53;0.17;;;13.70;99.90;13.30;99406.00;;;;4910212;28;117399;-68
2023/10/30 02:09:37;;;;;;;0.37;0.27;;;14.30;99.90;13.30;99400.00;;;;4909948;28;87419;-67
2023/10/30 02:12:03;;;;;;;0.93;0.30;;;13.30;99.90;13.30;99399.00;;;;4894859;28;88016;-67
2023/10/30 02:14:29;;;;;;;0.47;0.30;;;13.30;99.90;13.40;99396.00;;;;4890935;28;94171;-67
2023/10/30 02:16:55;;;;;;;0.15;0.15;;;13.70;99.90;13.40;99398.00;;;;4913898;28;88952;-67
2023/10/30 02:19:24;;;;;;;0.30;0.20;;;13.40;99.90;13.40;99405.00;;;;4912931;28;89483;-68
2023/10/30 02:21:52;;;;;;;0.10;0.10;;;13.40;99.90;13.40;99410.00;;;;4915193;28;87960;-66
2023/10/30 02:24:19;;;;;;;2.37;0.30;;;13.40;99.90;13.50;99415.00;;;;4915435;28;90500;-67
2023/10/30 02:26:45;;;;;;;0.13;0.13;;;13.50;99.90;13.50;99428.00;;;;4912894;28;90045;-69
2023/10/30 02:29:11;;;;;;;0.40;0.20;;;13.50;99.90;13.60;99434.00;;;;4913559;28;108428;-66
2023/10/30 02:31:36;;;;;;;0.28;0.28;;;13.50;99.90;13.60;99429.00;;;;4909255;28;107189;-66
2023/10/30 02:34:02;;;;;;;0.10;0.10;;;13.50;99.90;13.60;99409.00;;;;4910628;28;106392;-66
2023/10/30 02:36:28;;;;;;;0.20;0.20;;;13.60;99.90;13.70;99411.00;;;;4912582;28;103475;-67
2023/10/30 02:38:54;;;;;;;0.10;0.10;;;13.60;99.90;13.60;99405.00;;;;4900609;28;100408;-69
2023/10/30 02:41:21;;;;;;;0.37;0.37;;;13.60;99.90;13.70;99403.00;;;;4909415;28;88085;-65
2023/10/30 02:43:47;;;;;;;1.07;0.23;;;13.60;99.90;13.60;99413.00;;;;4911718;28;87121;-67
2023/10/30 02:46:12;;;;;;;0.22;0.22;;;13.60;99.90;13.60;99416.00;;;;4909562;28;87814;-68
2023/10/30 02:48:38;;;;;;;0.10;0.10;;;13.60;99.90;13.60;99425.00;;;;4912746;28;107625;-66
2023/10/30 02:51:04;;;;;;;0.20;0.20;;;13.60;99.90;13.60;99419.00;;;;4912843;28;110008;-68
2023/10/30 02:53:30;;;;;;;0.33;0.23;;;13.60;99.90;13.50;99425.00;;;;4915233;28;107956;-66
2023/10/30 02:55:56;;;;;;;0.10;0.10;;;13.50;99.90;13.50;99406.00;;;;4910317;28;87803;-66
2023/10/30 02:58:21;;;;;;;0.20;0.20;;;13.50;99.90;13.40;99410.00;;;;4911999;28;108878;-68
2023/10/30 03:00:48;;;;;;;0.83;0.57;;;13.50;99.90;13.40;99406.00;;;;4908698;28;109708;-66
2023/10/30 03:03:14;;;;;;;0.20;0.20;;;13.40;99.90;13.40;99406.00;;;;4907314;28;99319;-66
2023/10/30 03:05:40;;;;;;;0.33;0.27;;;13.40;99.90;13.40;99402.00;;;;4890802;28;87681;-66
2023/10/30 03:08:05;;;;;;;0.10;0.10;;;13.40;99.90;13.40;99408.00;;;;4909755;28;118132;-67
2023/10/30 03:10:31;;;;;;;0.00;0.00;;;13.40;99.90;13.40;99386.00;;;;4913134;28;87798;-67
2023/10/30 03:12:57;;;;;;;0.20;0.10;;;13.40;99.90;13.40;99382.00;;;;4906826;28;102470;-68
2023/10/30 03:15:23;;;;;;;0.40;0.40;;;13.40;99.90;13.40;99371.00;;;;4897892;28;118209;-67
2023/10/30 03:17:48;;;;;;;0.10;0.10;;;13.40;99.90;13.40;99365.00;;;;4912533;28;117585;-66
2023/10/30 03:20:14;;;;;;;0.10;0.10;;;13.40;99.90;13.40;99388.00;;;;4907463;28;106608;-66
2023/10/30 03:22:40;;;;;;;0.22;0.22;;;13.40;99.90;13.40;99406.00;;;;4916362;28;87854;-66
2023/10/30 03:25:07;;;;;;;0.17;0.17;;;13.40;99.90;13.40;99407.00;;;;4915300;28;88821;-68
2023/10/30 03:27:33;;;;;;;0.10;0.10;;;13.40;99.90;13.40;99426.00;;;;4893890;28;105376;-68
2023/10/30 03:29:59;;;;;;;0.00;0.00;;;13.30;99.90;13.40;99450.00;;;;4895370;28;87669;-68
2023/10/30 03:32:25;;;;;;;0.70;0.20;;;13.40;99.90;13.40;99456.00;;;;4891227;28;107082;-67
2023/10/30 03:34:52;;;;;;;0.20;0.20;;;13.30;99.90;13.40;99449.00;;;;4913112;28;115741;-68
2023/10/30 03:37:18;;;;;;;0.20;0.20;;;14.10;99.90;13.40;99450.00;;;;4912579;28;88017;-65
2023/10/30 03:39:45;;;;;;;1.93;0.20;;;13.40;99.90;13.50;99442.00;;;;4911519;28;88661;-68
2023/10/30 03:42:11;;;;;;;0.30;0.30;;;13.50;99.90;13.50;99436.00;;;;4895806;28;94321;-69
2023/10/30 03:44:37;;;;;;;0.83;0.33;;;13.50;99.90;13.50;99442.00;;;;4894727;28;95710;-67
2023/10/30 03:47:02;;;;;;;0.10;0.10;;;13.50;99.90;13.60;99451.00;;;;4912467;28;108274;-68
2023/10/30 03:49:28;;;;;;;0.10;0.10;;;13.50;99.90;13.60;99462.00;;;;4910004;28;96782;-68
2023/10/30 03:51:54;;;;;;;0.20;0.20;;;13.70;99.90;13.60;99454.00;;;;4911777;28;107297;-67
2023/10/30 03:54:20;;;;;;;0.10;0.10;;;14.70;99.90;13.70;99441.00;;;;4916365;28;88199;-68
2023/10/30 03:56:46;;;;;;;0.88;0.15;;;13.20;99.90;13.70;99433.00;;;;4914623;28;88947;-67
2023/10/30 03:59:12;;;;;;;0.30;0.30;;;13.60;99.90;13.70;99426.00;;;;4912036;28;109643;-67
2023/10/30 04:01:38;;;;;;;0.20;0.20;;;13.60;99.90;13.70;99414.00;;;;4916592;28;87623;-67
2023/10/30 04:04:05;;;;;;;0.20;0.10;;;13.70;99.90;13.70;99411.00;;;;4911001;28;119910;-67
2023/10/30 04:06:30;;;;;;;0.32;0.30;;;13.70;99.90;13.70;99426.00;;;;4910391;28;113945;-66
2023/10/30 04:08:56;;;;;;;0.17;0.17;;;13.70;99.90;13.70;99423.00;;;;4912872;28;110052;-67
2023/10/30 04:11:22;;;;;;;0.52;0.30;;;13.70;99.90;13.70;99434.00;;;;4895372;28;108398;-67
2023/10/30 04:13:47;;;;;;;1.75;0.55;;;13.60;99.90;13.60;99422.00;;;;4914637;28;118087;-66
2023/10/30 04:16:18;;;;;;;0.37;0.30;;;13.60;99.90;13.60;99429.00;;;;4913223;28;118039;-65
2023/10/30 04:18:43;;;;;;;0.37;0.20;;;13.60;99.90;13.50;99417.00;;;;4912141;28;87571;-65
2023/10/30 04:21:09;;;;;;;1.73;0.27;;;13.50;99.90;13.50;99400.00;;;;4911957;28;108354;-66
2023/10/30 04:23:36;;;;;;;0.10;0.10;;;13.40;99.90;13.40;99409.00;;;;4911757;28;115511;-66
2023/10/30 04:26:02;;;;;;;2.70;0.37;;;13.40;99.90;13.30;99397.00;;;;4913014;28;88434;-65
2023/10/30 04:28:28;;;;;;;0.10;0.10;;;13.40;99.90;13.20;99407.00;;;;4912795;28;88729;-65
2023/10/30 04:30:53;;;;;;;0.10;0.10;;;13.30;99.90;13.20;99436.00;;;;4909945;28;108547;-65
2023/10/30 04:33:19;;;;;;;1.40;0.40;;;13.20;99.90;13.10;99421.00;;;;4909741;28;119778;-66
2023/10/30 04:35:45;;;;;;;0.77;0.43;;;13.20;99.90;13.10;99439.00;;;;4913889;28;112086;-67
2023/10/30 04:38:10;;;;;;;0.30;0.30;;;13.10;99.90;13.10;99457.00;;;;4915815;28;89915;-68
2023/10/30 04:40:36;;;;;;;0.53;0.53;;;13.10;99.90;13.20;99429.00;;;;4913474;28;106373;-68
2023/10/30 04:43:02;;;;;;;0.23;0.23;;;13.20;99.90;13.20;99422.00;;;;4911910;28;100807;-68
2023/10/30 04:45:28;;;;;;;0.50;0.50;;;13.10;99.90;13.10;99430.00;;;;4894808;28;87649;-68
2023/10/30 04:47:53;;;;;;;0.97;0.57;;;13.10;99.90;13.10;99417.00;;;;4914448;28;108843;-68
2023/10/30 04:50:19;;;;;;;0.30;0.23;;;13.20;99.90;13.10;99417.00;;;;4893800;28;110602;-67
2023/10/30 04:52:45;;;;;;;1.90;0.30;;;13.10;99.90;13.10;99425.00;;;;4912040;28;89647;-68
2023/10/30 04:55:10;;;;;;;1.13;0.23;;;13.10;99.90;13.10;99442.00;;;;4911940;28;118185;-69
2023/10/30 04:57:36;;;;;;;0.23;0.20;;;13.10;99.90;13.10;99431.00;;;;4914155;28;88229;-66
2023/10/30 05:00:04;;;;;;;0.80;0.50;;;13.10;99.90;13.00;99443.00;;;;4911777;28;100277;-66
2023/10/30 05:02:30;;;;;;;0.47;0.37;;;13.10;99.90;13.00;99434.00;;;;4914476;28;89003;-66
2023/10/30 05:04:56;;;;;;;0.57;0.20;;;13.00;99.90;13.00;99417.00;;;;4913158;28;90324;-66
2023/10/30 05:07:22;;;;;;;0.10;0.10;;;13.00;99.90;13.00;99434.00;;;;4912198;28;108670;-67
2023/10/30 05:09:48;;;;;;;0.10;0.10;;;13.00;99.90;12.90;99430.00;;;;4915492;28;107736;-66
2023/10/30 05:12:14;;;;;;;0.30;0.30;;;12.90;99.90;12.90;99435.00;;;;4912803;28;94043;-67
2023/10/30 05:14:40;;;;;;;0.20;0.20;;;12.90;99.90;12.90;99425.00;;;;4911028;28;117896;-68
2023/10/30 05:17:05;;;;;;;0.00;0.00;;;12.90;99.90;12.90;99432.00;;;;4910978;28;98981;-68
2023/10/30 05:19:31;;;;;;;0.33;0.33;;;12.90;99.90;12.90;99421.00;;;;4913677;28;109995;-67
2023/10/30 05:21:57;;;;;;;0.27;0.20;;;12.90;99.90;12.90;99421.00;;;;4915682;28;88406;-67
2023/10/30 05:24:25;;;;;;;0.60;0.20;;;12.90;99.90;12.90;99423.00;;;;4911768;28;117113;-68
2023/10/30 05:26:52;;;;;;;1.10;1.00;;;12.90;99.90;12.80;99427.00;;;;4915907;28;87836;-67
2023/10/30 05:29:18;;;;;;;1.03;0.40;;;12.90;99.90;12.80;99433.00;;;;4909408;28;87572;-68
2023/10/30 05:31:44;;;;;;;0.30;0.30;;;12.90;99.90;12.80;99435.00;;;;4913577;28;87859;-68
2023/10/30 05:34:10;;;;;;;0.43;0.37;;;12.80;99.90;12.80;99444.00;;;;4897720;28;96823;-68
2023/10/30 05:36:36;;;;;;;5.53;0.57;;;12.80;99.90;12.80;99446.00;;;;4914533;28;110384;-68
2023/10/30 05:39:02;;;;;;;1.67;0.30;;;12.80;99.90;12.80;99463.00;;;;4911269;28;87948;-69
2023/10/30 05:41:28;;;;;;;0.10;0.10;;;12.80;99.90;12.80;99449.00;;;;4913590;28;88846;-68
2023/10/30 05:43:54;;;;;;;0.30;0.30;;;12.80;99.90;12.80;99435.00;;;;4895394;28;117365;-68
2023/10/30 05:46:19;;;;;;;0.10;0.10;;;12.80;99.90;12.80;99423.00;;;;4912685;28;88122;-68
2023/10/30 05:48:45;;;;;;;0.30;0.30;;;12.80;99.90;12.80;99402.00;;;;4896513;28;108923;-68
2023/10/30 05:51:11;;;;;;;0.33;0.23;;;12.80;99.90;12.80;99435.00;;;;4910272;28;116093;-68
2023/10/30 05:53:37;;;;;;;0.57;0.57;;;12.80;99.90;12.70;99433.00;;;;4908509;28;116749;-68
2023/10/30 05:56:03;;;;;;;0.10;0.10;;;12.70;99.90;12.70;99443.00;;;;4907627;28;87642;-69
2023/10/30 05:58:28;;;;;;;0.10;0.10;;;12.70;99.90;12.60;99448.00;;;;4890214;28;86909;-68
2023/10/30 06:00:54;;;;;;;0.40;0.40;;;12.70;99.90;12.60;99430.00;;;;4899326;28;119336;-68
2023/10/30 06:03:20;;;;;;;1.27;0.60;;;12.70;99.90;12.50;99447.00;;;;4912518;28;116480;-68
2023/10/30 06:05:45;;;;;;;0.30;0.20;;;12.60;99.90;12.50;99439.00;;;;4915320;28;108762;-68
2023/10/30 06:08:11;;;;;;;0.70;0.50;;;12.60;99.90;12.50;99447.00;;;;4911884;28;88009;-68
2023/10/30 06:10:38;;;;;;;0.53;0.40;;;12.50;99.90;12.40;99447.00;;;;4910554;28;112735;-68
2023/10/30 06:13:06;;;;;;;0.70;0.57;;;12.50;99.90;12.40;99452.00;;;;4907582;28;87687;-68
2023/10/30 06:15:32;;;;;;;0.20;0.20;;;12.40;99.90;12.40;99464.00;;;;4906754;28;87841;-68
2023/10/30 06:17:58;;;;;;;0.53;0.53;;;12.40;99.90;12.30;99451.00;;;;4875950;28;107501;-67
2023/10/30 06:20:25;;;;;;;1.20;0.40;;;12.40;99.90;12.30;99484.00;;;;4874864;28;87989;-67
2023/10/30 06:22:51;;;;;;;0.93;0.73;;;12.40;99.90;12.30;99477.00;;;;4887433;28;89639;-69
2023/10/30 06:25:20;;;;;;;0.60;0.27;;;12.30;99.90;12.20;99468.00;;;;4895435;28;100369;-68
2023/10/30 06:27:45;;;;;;;1.60;0.60;;;12.30;99.90;12.20;99475.00;;;;4908072;28;104822;-68
2023/10/30 06:30:17;;;;;;;4.07;0.50;;;12.30;99.90;12.20;99462.00;;;;4901620;28;119869;-68
2023/10/30 06:32:43;;;;;;;0.50;0.30;;;12.20;99.90;12.20;99437.00;;;;4891541;28;88118;-68
2023/10/30 06:35:10;;;;;;;0.87;0.43;;;12.30;99.90;12.20;99428.00;;;;4906735;28;87840;-68
2023/10/30 06:37:36;;;;;;;1.33;0.90;;;12.20;99.90;12.10;99425.00;;;;4907661;28;88722;-67
2023/10/30 06:40:03;;;;;;;2.17;1.60;;;12.60;99.90;12.10;99425.00;;;;4907157;28;88235;-68
2023/10/30 06:42:29;;;;;;;0.80;0.40;;;12.20;99.90;12.10;99440.00;;;;4905623;28;87996;-68
2023/10/30 06:45:00;;;;;;;0.87;0.70;;;13.10;99.90;12.00;99447.00;;;;4907659;28;110189;-68
2023/10/30 06:47:27;;;;;;;1.43;0.60;;;12.10;99.90;12.00;99474.00;;;;4908757;28;107173;-68
2023/10/30 06:49:53;;;;;;;0.57;0.50;;;12.00;99.90;12.00;99475.00;;;;4906042;28;96249;-68
2023/10/30 06:52:18;;;;;;;0.47;0.47;;;12.00;99.90;11.90;99485.00;;;;4903511;28;117589;-68
2023/10/30 06:54:44;;;;;;;1.40;0.80;;;12.00;99.90;11.90;99483.00;;;;4905534;28;88743;-67
2023/10/30 06:57:10;;;;;;;2.73;1.27;;;12.10;99.90;11.90;99493.00;;;;4887666;28;107155;-68
2023/10/30 06:59:35;;;;;;;1.73;1.03;;;11.90;99.90;11.90;99510.00;;;;4909595;28;87901;-67
2023/10/30 07:02:02;;;;;;;1.30;0.50;;;11.90;99.90;11.90;99509.00;;;;4905451;28;116622;-68
2023/10/30 07:04:29;;;;;;;0.50;0.50;;;11.90;99.90;11.90;99510.00;;;;4910831;28;87696;-67
2023/10/30 07:06:55;;;;;;;1.53;1.43;;;12.10;99.90;11.90;99493.00;;;;4912531;28;88150;-67
2023/10/30 07:09:21;;;;;;;1.90;1.63;;;11.90;99.90;11.90;99483.00;;;;4908866;28;88636;-67
2023/10/30 07:11:53;;;;;;;2.60;1.73;;;11.90;99.90;11.90;99487.00;;;;4908391;28;116027;-68
2023/10/30 07:14:18;;;;;;;2.00;1.27;;;11.90;99.90;11.90;99492.00;;;;4908958;28;91159;-68
2023/10/30 07:16:44;;;;;;;3.30;1.07;;;11.90;99.90;12.00;99490.00;;;;4912633;28;87847;-67
2023/10/30 07:19:10;;;;;;;1.33;0.97;;;11.90;99.90;12.00;99488.00;;;;4909917;28;108918;-68
2023/10/30 07:21:35;;;;;;;1.40;1.30;;;12.00;99.90;12.10;99494.00;;;;4897760;28;118378;-68
2023/10/30 07:24:01;;;;;;;8.63;1.13;;;12.00;99.90;12.10;99487.00;;;;4910581;28;110127;-68
2023/10/30 07:26:27;;;;;;;4.63;1.30;;;12.10;99.90;12.10;99486.00;;;;4910917;28;108226;-67
2023/10/30 07:28:53;;;;;;;2.47;1.70;;;12.10;99.90;12.20;99492.00;;;;4909838;28;118124;-67
2023/10/30 07:31:19;;;;;;;1.70;1.30;;;12.20;99.90;12.20;99490.00;;;;4911372;28;88182;-67
2023/10/30 07:33:45;;;;;;;2.40;2.10;;;12.20;99.90;12.30;99478.00;;;;4916761;28;104177;-67
2023/10/30 07:36:11;;;;;;;1.43;0.80;;;12.30;99.90;12.40;99484.00;;;;4909493;28;87271;-67
2023/10/30 07:38:37;;;;;;;3.53;1.83;;;12.30;99.90;12.50;99477.00;;;;4911061;28;116764;-67
2023/10/30 07:41:04;;;;;;;2.93;1.93;;;12.40;99.90;12.50;99504.00;;;;4907241;28;111702;-67
2023/10/30 07:43:30;;;;;;;3.47;1.67;;;12.50;99.90;12.60;99495.00;;;;4908586;28;88956;-69
2023/10/30 07:45:57;;;;;;;3.77;2.13;;;12.50;99.90;12.60;99502.00;;;;4895138;28;87841;-68
2023/10/30 07:48:23;;;;;;;3.63;2.00;;;13.50;99.90;12.60;99486.00;;;;4911923;28;88264;-68
2023/10/30 07:50:50;;;;;;;2.10;1.23;;;12.60;99.90;12.60;99492.00;;;;4890784;28;88461;-68
2023/10/30 07:53:16;;;;;;;1.60;1.40;;;12.60;99.90;12.70;99493.00;;;;4906335;28;88127;-68
2023/10/30 07:55:41;;;;;;;1.77;1.67;;;12.70;99.90;12.70;99499.00;;;;4910846;28;107768;-68
2023/10/30 07:58:07;;;;;;;1.60;1.27;;;12.70;99.90;12.80;99505.00;;;;4912056;28;88573;-68
2023/10/30 08:00:33;;;;;;;3.60;1.77;;;12.70;99.90;12.80;99508.00;;;;4912788;28;118016;-68
2023/10/30 08:03:03;;;;;;;1.93;1.40;;;12.80;99.90;12.90;99520.00;;;;4912187;28;110876;-68
2023/10/30 08:05:30;;;;;;;2.30;1.30;;;12.90;99.90;13.00;99524.00;;;;4913104;28;87416;-67
2023/10/30 08:07:56;;;;;;;2.53;1.03;;;13.00;99.90;13.10;99521.00;;;;4909429;28;89723;-67
2023/10/30 08:10:22;;;;;;;2.43;1.30;;;13.00;99.90;13.20;99522.00;;;;4908587;28;117792;-68
2023/10/30 08:12:47;;;;;;;2.42;1.23;;;13.20;99.90;13.30;99528.00;;;;4906976;28;110696;-68
2023/10/30 08:15:14;;;;;;;2.95;1.52;;;13.20;99.90;13.40;99539.00;;;;4907058;28;108891;-68
2023/10/30 08:17:40;;;;;;;0.87;0.83;;;13.40;99.90;13.50;99554.00;;;;4907226;28;88776;-68
2023/10/30 08:20:06;;;;;;;8.85;1.95;;;13.50;99.90;13.60;99563.00;;;;4909652;28;118704;-68
2023/10/30 08:22:32;;;;;;;2.70;2.30;;;13.60;99.90;13.70;99563.00;;;;4910964;28;100706;-67
2023/10/30 08:24:59;;;;;;;3.53;2.03;;;13.60;99.90;13.80;99549.00;;;;4911059;28;87173;-67
2023/10/30 08:27:25;;;;;;;6.97;1.85;;;13.70;99.90;13.90;99571.00;;;;4908844;28;87587;-67
2023/10/30 08:29:50;;;;;;;4.28;1.90;;;13.80;99.90;14.00;99574.00;;;;4890124;28;100351;-67
2023/10/30 08:32:16;;;;;;;1.50;1.40;;;13.90;99.90;14.10;99562.00;;;;4889928;28;111293;-67
2023/10/30 08:34:42;;;;;;;1.20;1.10;;;14.00;99.90;14.10;99563.00;;;;4907029;28;87834;-68
2023/10/30 08:37:07;;;;;;;2.25;1.42;;;14.10;99.90;14.20;99570.00;;;;4878161;28;120386;-67
2023/10/30 08:39:33;;;;;;;1.90;1.20;;;14.10;99.90;14.30;99581.00;;;;4904886;28;87877;-68
2023/10/30 08:41:59;;;;;;;2.13;1.45;;;14.20;99.90;14.40;99581.00;;;;4897852;28;110335;-68
2023/10/30 08:44:24;;;;;;;1.67;1.52;;;14.30;99.90;14.40;99594.00;;;;4906848;28;106005;-68
2023/10/30 08:46:51;;;;;;;3.35;1.52;;;14.30;99.90;14.50;99589.00;;;;4893398;28;99456;-69
2023/10/30 08:49:16;;;;;;;2.28;1.55;;;14.40;99.90;14.50;99592.00;;;;4899570;28;94421;-68
2023/10/30 08:51:43;;;;;;;1.77;1.67;;;14.40;99.90;14.50;99598.00;;;;4910821;28;87847;-69
2023/10/30 08:54:09;;;;;;;6.28;1.63;;;14.50;99.90;14.50;99583.00;;;;4909617;28;87734;-68
2023/10/30 08:56:36;;;;;;;2.28;1.25;;;14.50;99.90;14.50;99589.00;;;;4895150;28;96539;-68
2023/10/30 08:59:05;;;;;;;1.95;1.20;;;14.50;99.90;14.60;99590.00;;;;4879182;28;88211;-67
2023/10/30 09:01:31;;;;;;;1.35;0.98;;;14.50;99.90;14.70;99590.00;;;;4909884;28;87704;-67
2023/10/30 09:03:58;;;;;;;3.15;0.75;;;14.60;99.90;14.70;99579.00;;;;4891494;28;87878;-68
2023/10/30 09:06:24;;;;;;;0.30;0.20;;;14.60;99.90;14.80;99579.00;;;;4909285;28;108652;-66
2023/10/30 09:08:50;;;;;;;0.68;0.63;;;14.70;99.90;14.80;99571.00;;;;4909048;28;87545;-67
2023/10/30 09:11:15;;;;;;;1.00;0.45;;;14.80;99.90;14.90;99567.00;;;;4890042;28;95042;-67
2023/10/30 09:13:41;;;;;;;0.47;0.45;;;14.50;99.90;15.00;99572.00;;;;4908788;28;107945;-68
2023/10/30 09:16:07;;;;;;;0.40;0.40;;;15.30;99.90;15.10;99562.00;;;;4909878;28;88545;-69
2023/10/30 09:18:33;;;;;;;0.55;0.45;;;14.90;99.90;15.10;99564.00;;;;4892976;28;112750;-67
2023/10/30 09:20:58;;;;;;;1.95;0.98;;;15.00;99.90;15.20;99556.00;;;;4903693;28;111819;-66
2023/10/30 09:23:26;;;;;;;0.68;0.40;;;15.10;99.90;15.30;99551.00;;;;4900407;28;87817;-69
2023/10/30 09:25:51;;;;;;;0.32;0.32;;;15.20;99.90;15.40;99538.00;;;;4903504;28;87895;-68
2023/10/30 09:28:17;;;;;;;1.45;0.47;;;15.30;99.90;15.50;99544.00;;;;4908764;28;117133;-68
2023/10/30 09:30:44;;;;;;;0.57;0.43;;;15.30;99.90;15.50;99545.00;;;;4912305;28;87837;-67
2023/10/30 09:33:10;;;;;;;0.35;0.32;;;15.40;99.90;15.60;99553.00;;;;4908109;28;87803;-69
2023/10/30 09:35:38;;;;;;;0.38;0.38;;;15.50;99.90;15.70;99555.00;;;;4895823;28;88101;-66
2023/10/30 09:38:05;;;;;;;2.42;0.75;;;15.60;99.90;15.90;99528.00;;;;4912728;28;88692;-67
2023/10/30 09:40:31;;;;;;;0.52;0.52;;;15.70;99.90;16.30;99537.00;;;;4911264;28;87976;-68
2023/10/30 09:42:58;;;;;;;4.57;0.57;;;16.00;99.90;16.80;99531.00;;;;4904578;28;98003;-69
2023/10/30 09:45:25;;;;;;;0.88;0.60;;;16.50;99.90;17.20;99536.00;;;;4907594;28;90633;-69
2023/10/30 09:48:00;;;;;;;0.40;0.40;;;16.90;99.90;17.80;99529.00;;;;4891284;28;93819;-69
2023/10/30 09:50:26;;;;;;;4.22;0.20;;;17.40;99.90;18.30;99536.00;;;;4907211;28;87918;-69
2023/10/30 09:52:54;;;;;;;0.80;0.57;;;17.90;99.90;18.70;99539.00;;;;4911937;28;87926;-66
2023/10/30 09:55:22;;;;;;;0.30;0.30;;;18.30;99.90;19.00;99550.00;;;;4910557;28;88622;-68
2023/10/30 09:57:49;;;;;;;2.47;0.60;;;18.70;99.90;19.10;99551.00;;;;4904909;28;87884;-67
2023/10/30 10:00:16;;;;;;;1.58;0.77;;;18.80;99.90;19.10;99560.00;;;;4909607;28;87728;-67
2023/10/30 10:02:42;;;;;;;0.20;0.20;;;19.00;99.90;19.00;99561.00;;;;4890040;28;86779;-67
2023/10/30 10:05:18;;;;;;;0.43;0.43;;;18.90;99.60;18.70;99566.00;;;;4903013;28;88539;-67
2023/10/30 10:07:44;;;;;;;0.47;0.43;;;18.70;97.90;18.40;99556.00;;;;4890035;28;87828;-67
2023/10/30 10:10:18;;;;;;;1.95;0.82;;;18.40;98.40;18.20;99540.00;;;;4903752;28;88712;-66
2023/10/30 10:12:48;;;;;;;0.28;0.20;;;18.20;99.10;18.00;99540.00;;;;4904565;28;87945;-67
2023/10/30 10:15:14;;;;;;;0.20;0.20;;;18.00;98.90;17.80;99554.00;;;;4901271;28;89522;-66
2023/10/30 10:17:48;;;;;;;1.95;0.57;;;17.80;98.60;17.60;99545.00;;;;4909518;28;118395;-66
2023/10/30 10:20:14;;;;;;;1.38;0.55;;;17.60;99.20;17.50;99554.00;;;;4911246;28;87696;-67
2023/10/30 10:22:40;;;;;;;1.80;0.52;;;18.30;99.40;17.40;99552.00;;;;4910297;28;95408;-67
2023/10/30 10:25:08;;;;;;;0.77;0.50;;;17.40;99.40;17.30;99560.00;;;;4906129;28;95145;-66
2023/10/30 10:27:34;;;;;;;0.47;0.40;;;17.20;99.60;17.30;99555.00;;;;4890338;28;87537;-67
2023/10/30 10:30:00;;;;;;;0.52;0.45;;;17.20;99.90;17.30;99549.00;;;;4908873;28;87861;-66
2023/10/30 10:32:27;;;;;;;0.93;0.68;;;17.20;99.90;17.30;99552.00;;;;4908864;28;99466;-67
2023/10/30 10:35:05;;;;;;;0.40;0.40;;;17.20;99.90;17.30;99550.00;;;;4905599;28;88654;-67
2023/10/30 10:37:32;;;;;;;0.10;0.10;;;17.20;99.90;17.30;99542.00;;;;4883448;28;89116;-67
2023/10/30 10:40:03;;;;;;;0.28;0.28;;;16.80;99.90;17.20;99529.00;;;;4905852;28;88038;-66
2023/10/30 10:42:29;;;;;;;0.50;0.50;;;17.20;99.90;17.30;99521.00;;;;4907305;28;87814;-67
2023/10/30 10:44:58;;;;;;;0.35;0.35;;;17.20;99.90;17.30;99525.00;;;;4907661;28;118337;-67
2023/10/30 10:47:24;;;;;;;0.30;0.30;;;17.20;99.90;17.40;99522.00;;;;4909460;28;87810;-67